createdAt,value
2022-12-20T00:03:02.657Z,53.85
2022-12-20T00:09:48.308Z,53.92
2022-12-20T00:16:36.446Z,53.96
2022-12-20T00:23:21.823Z,54.05
2022-12-20T00:30:08.989Z,53.90
2022-12-20T00:36:56.995Z,53.95
2022-12-20T00:43:43.485Z,54.00
2022-12-20T00:50:28.999Z,53.82
2022-12-20T00:57:16.953Z,54.12
2022-12-20T01:04:03.302Z,53.73
2022-12-20T01:10:48.844Z,53.76
2022-12-20T01:17:36.890Z,53.65
2022-12-20T01:24:23.685Z,53.76
2022-12-20T01:31:10.931Z,53.74
2022-12-20T01:37:58.908Z,53.65
2022-12-20T01:45:15.053Z,53.94
2022-12-20T01:52:09.021Z,54.05
2022-12-20T01:58:59.766Z,54.10
2022-12-20T02:05:48.286Z,53.97
2022-12-20T02:12:42.629Z,53.91
2022-12-20T02:20:17.709Z,54.00
2022-12-20T02:27:48.025Z,54.13
2022-12-20T02:34:40.077Z,54.01
2022-12-20T02:41:35.079Z,54.06
2022-12-20T02:48:21.922Z,54.03
2022-12-20T02:55:11.373Z,54.17
2022-12-20T03:01:59.653Z,54.15
2022-12-20T03:08:45.490Z,54.23
2022-12-20T03:15:33.615Z,54.22
2022-12-20T03:22:21.056Z,54.42
2022-12-20T03:29:07.343Z,54.24
2022-12-20T03:35:55.377Z,54.29
2022-12-20T03:42:41.844Z,54.37
2022-12-20T04:02:52.526Z,54.38
2022-12-20T04:09:38.219Z,54.45
2022-12-20T04:16:31.415Z,54.59
2022-12-20T04:23:19.612Z,54.66
2022-12-20T04:30:06.554Z,54.52
2022-12-20T04:36:52.292Z,54.51
2022-12-20T04:44:02.225Z,54.96
2022-12-20T04:50:55.321Z,54.45
2022-12-20T04:57:41.259Z,54.03
2022-12-20T05:04:35.287Z,54.44
2022-12-20T05:11:23.205Z,54.53
2022-12-20T05:18:09.947Z,54.60
2022-12-20T05:25:19.888Z,54.78
2022-12-20T05:32:07.628Z,54.57
2022-12-20T05:39:03.668Z,54.54
2022-12-20T05:45:55.334Z,54.65
2022-12-20T05:52:50.900Z,54.43
2022-12-20T05:59:37.904Z,54.65
2022-12-20T06:06:29.127Z,54.68
2022-12-20T06:13:15.158Z,54.64
2022-12-20T06:20:01.020Z,54.57
2022-12-20T06:26:50.301Z,54.70
2022-12-20T06:33:37.079Z,54.63
2022-12-20T06:40:22.713Z,54.41
2022-12-20T06:47:10.875Z,54.59
2022-12-20T06:53:57.062Z,54.64
2022-12-20T07:00:43.070Z,54.77
2022-12-20T07:07:31.105Z,55.09
2022-12-20T07:14:16.496Z,54.84
2022-12-20T07:21:04.372Z,54.97
2022-12-20T07:27:54.005Z,55.06
2022-12-20T07:34:40.770Z,54.95
2022-12-20T07:41:26.223Z,54.85
2022-12-20T07:48:18.110Z,55.03
2022-12-20T07:55:08.783Z,55.28
2022-12-20T08:02:00.709Z,54.99
2022-12-20T08:08:57.594Z,55.14
2022-12-20T08:15:43.205Z,54.90
2022-12-20T08:22:28.741Z,55.13
2022-12-20T08:29:16.933Z,54.95
2022-12-20T08:36:03.762Z,55.15
2022-12-20T08:42:49.261Z,54.96
2022-12-20T08:49:40.053Z,55.30
2022-12-20T08:56:29.481Z,55.04
2022-12-20T09:03:15.424Z,55.35
2022-12-20T09:10:03.503Z,55.38
2022-12-20T09:16:49.278Z,55.42
2022-12-20T09:23:37.144Z,55.38
2022-12-20T09:30:25.301Z,55.75
2022-12-20T09:37:11.306Z,55.55
2022-12-20T09:43:57.018Z,55.60
2022-12-20T09:50:56.678Z,55.89
2022-12-20T09:58:02.045Z,55.67
2022-12-20T10:04:48.029Z,55.47
2022-12-20T10:11:54.442Z,55.45
2022-12-20T10:18:59.062Z,55.59
2022-12-20T10:25:46.141Z,55.43
2022-12-20T10:32:34.244Z,55.34
2022-12-20T10:39:19.732Z,55.40
2022-12-20T10:46:08.857Z,55.46
2022-12-20T10:53:25.531Z,55.65
2022-12-20T11:00:32.013Z,55.47
2022-12-20T11:07:28.832Z,55.54
2022-12-20T11:14:21.560Z,55.24
2022-12-20T11:21:28.060Z,55.37
2022-12-20T11:28:32.434Z,55.25
2022-12-20T11:35:25.888Z,55.21
2022-12-20T11:42:24.562Z,55.20
2022-12-20T11:49:54.773Z,55.28
2022-12-20T11:56:47.147Z,55.03
2022-12-20T12:03:38.448Z,55.09
2022-12-20T12:10:27.989Z,54.89
2022-12-20T12:17:32.115Z,54.97
2022-12-20T12:24:27.611Z,54.87
2022-12-20T12:31:20.185Z,54.86
2022-12-20T12:38:44.528Z,54.99
2022-12-20T12:45:33.371Z,54.70
2022-12-20T12:52:39.991Z,54.97
2022-12-20T12:59:55.256Z,54.79
2022-12-20T13:06:59.432Z,54.76
2022-12-20T13:13:44.882Z,54.70
2022-12-20T13:20:35.199Z,54.89
2022-12-20T13:27:33.803Z,54.84
2022-12-20T13:34:42.242Z,55.09
2022-12-20T13:41:38.094Z,54.88
2022-12-20T13:48:30.985Z,54.78
2022-12-20T13:55:29.199Z,54.94
2022-12-20T14:02:25.492Z,54.83
2022-12-20T14:09:31.740Z,54.90
2022-12-20T14:16:21.184Z,54.58
2022-12-20T14:23:15.545Z,54.69
2022-12-20T14:30:01.001Z,54.49
2022-12-20T14:36:49.021Z,54.52
2022-12-20T14:43:38.911Z,54.61
2022-12-20T14:50:30.737Z,54.49
2022-12-20T14:57:26.904Z,54.59
2022-12-20T15:04:33.026Z,54.60
2022-12-20T15:11:24.236Z,54.49
2022-12-20T15:18:15.390Z,54.36
2022-12-20T15:25:04.001Z,54.30
2022-12-20T15:31:51.444Z,54.22
2022-12-20T15:45:47.379Z,54.29
2022-12-20T15:52:34.041Z,54.34
2022-12-20T15:59:57.811Z,53.72
2022-12-20T16:06:27.735Z,54.22
2022-12-20T16:13:21.204Z,54.46
2022-12-20T16:20:08.862Z,54.52
2022-12-20T16:26:56.915Z,54.46
2022-12-20T16:33:42.360Z,54.39
2022-12-20T16:40:30.360Z,54.43
2022-12-20T16:47:18.765Z,54.47
2022-12-20T16:54:19.430Z,54.34
2022-12-20T17:01:07.046Z,54.38
2022-12-20T17:07:59.753Z,54.31
2022-12-20T17:14:45.309Z,54.25
2022-12-20T17:28:39.699Z,54.48
2022-12-20T17:35:30.684Z,54.57
2022-12-20T17:42:16.886Z,54.33
2022-12-20T17:49:05.040Z,54.22
2022-12-20T17:55:50.378Z,53.97
2022-12-20T18:02:35.917Z,54.19
2022-12-20T18:09:25.176Z,54.11
2022-12-20T18:16:11.892Z,54.21
2022-12-20T18:22:57.355Z,54.16
2022-12-20T18:29:45.670Z,54.29
2022-12-20T18:36:34.648Z,54.31
2022-12-20T18:43:20.210Z,54.23
2022-12-20T18:50:11.996Z,54.46
2022-12-20T18:56:58.564Z,54.36
2022-12-20T19:03:44.351Z,54.39
2022-12-20T19:10:35.262Z,54.72
2022-12-20T19:17:20.622Z,54.58
2022-12-20T19:24:09.806Z,54.84
2022-12-20T19:30:58.580Z,54.95
2022-12-20T19:37:44.043Z,54.71
2022-12-20T19:44:29.504Z,54.66
2022-12-20T19:51:19.663Z,54.65
2022-12-20T19:58:05.041Z,54.57
2022-12-20T20:04:50.390Z,54.46
2022-12-20T20:11:38.451Z,54.54
2022-12-20T20:18:28.241Z,54.63
2022-12-20T20:25:13.998Z,54.77
2022-12-20T20:32:03.372Z,54.89
2022-12-20T20:38:49.906Z,54.86
2022-12-20T20:45:35.572Z,55.49
2022-12-20T20:52:23.868Z,56.19
2022-12-20T20:59:15.155Z,56.59
2022-12-20T21:13:12.051Z,57.43
2022-12-20T21:19:57.564Z,57.72
2022-12-20T21:26:43.197Z,58.27
2022-12-20T21:33:32.248Z,58.72
2022-12-20T21:40:17.903Z,58.83
2022-12-20T21:47:03.472Z,59.21
2022-12-20T21:53:54.126Z,59.49
2022-12-20T22:00:39.578Z,59.73
2022-12-20T22:07:24.990Z,60.00
2022-12-20T22:14:16.200Z,60.34
2022-12-20T22:21:01.963Z,60.41
2022-12-20T22:27:47.345Z,60.53
2022-12-20T22:34:35.450Z,61.05
2022-12-20T22:41:23.736Z,61.17
2022-12-20T22:48:09.479Z,61.20
2022-12-20T22:54:57.622Z,61.54
2022-12-20T23:01:43.232Z,61.54
2022-12-20T23:08:31.336Z,61.80
2022-12-20T23:15:31.942Z,62.17
2022-12-20T23:22:29.814Z,62.09
2022-12-20T23:29:16.141Z,62.35
2022-12-20T23:36:07.788Z,62.55
2022-12-20T23:42:56.553Z,62.63
2022-12-20T23:49:41.943Z,62.77
2022-12-20T23:56:29.959Z,63.16
